Pagina principale
METAR-TAF:

METAR-TAF

Aeroporti :

Aeroporto di Piacenza-San Damiano

Piacenza, Italia

latitudine: 44-55N, longitudine: 009-44E, altezza: 134 m

Osservazione

Il bollettino è stato emesso 57 minuti fa, alle 07:55 UTC
Vento 4 kt da sud, variando fra est/sud-est e sud-ovest
Temperature 21°C
Umidità 78%
Pressione 1004 hPa
Visibilità 10 km o più
Nubi sparse ad un'altezza di 5000 ft

METAR: LIMS 070755Z 18004KT 110V220 9999 SCT050 21/17 Q1004 RMK OVC BKN120 VIS MIN 9999 WIND THR30 17006KT BLU

Ora: 10:52 (08:52 UTC)


TAF: mancante

Osservazioni e previsioni meteorologiche di più di 4000 aeroporti (messaggi METAR e TAF).

Le stazioni disponibili sono rappresentate dai dischi gialli e rossi sulla carta.

Puntare il mouse per vedere il nome della stazione.

Clicca sopra per visualizzare le osservazioni e previsioni meteorologiche.

Per cambiare la mappa : fare clic sui pulsanti verdi con una croce nera per ingrandire, il pulsante verde con un trattino per diminuire, o sulla freccia verde per le mappe adiacenti.


METAR-TAF: